createdAt,value
2023-04-14T00:01:59.292Z,15.07
2023-04-14T00:05:02.048Z,43.90
2023-04-14T00:08:04.834Z,37.17
2023-04-14T00:11:07.544Z,60.83
2023-04-14T00:14:11.622Z,67.83
2023-04-14T00:17:14.343Z,13.00
2023-04-14T00:20:17.166Z,18.90
2023-04-14T00:23:19.882Z,19.57
2023-04-14T00:26:22.961Z,22.67
2023-04-14T00:29:27.225Z,25.03
2023-04-14T00:32:30.194Z,44.07
2023-04-14T00:35:33.243Z,35.93
2023-04-14T00:38:35.976Z,32.00
2023-04-14T00:41:38.652Z,36.80
2023-04-14T00:44:42.766Z,16.27
2023-04-14T00:47:49.232Z,13.87
2023-04-14T00:50:52.598Z,19.70
2023-04-14T00:53:56.728Z,13.47
2023-04-14T00:57:00.655Z,14.70
2023-04-14T01:00:05.922Z,29.83
2023-04-14T01:03:08.989Z,13.30
2023-04-14T01:06:11.844Z,19.23
2023-04-14T01:09:15.913Z,25.63
2023-04-14T01:12:32.619Z,15.53
2023-04-14T01:15:42.438Z,20.33
2023-04-14T01:18:52.920Z,35.17
2023-04-14T01:21:58.689Z,48.83
2023-04-14T01:25:22.014Z,37.73
2023-04-14T01:28:43.498Z,41.53
2023-04-14T01:31:49.950Z,58.40
2023-04-14T01:34:56.284Z,37.97
2023-04-14T01:38:04.835Z,22.10
2023-04-14T01:41:09.868Z,31.70
2023-04-14T01:44:15.001Z,29.00
2023-04-14T01:47:21.220Z,20.37
2023-04-14T01:50:26.383Z,17.47
2023-04-14T01:53:33.425Z,50.33
2023-04-14T01:56:38.581Z,19.33
2023-04-14T01:59:43.369Z,21.83
2023-04-14T02:02:50.266Z,26.10
2023-04-14T02:05:56.553Z,36.97
2023-04-14T02:09:02.330Z,22.77
2023-04-14T02:12:07.618Z,19.80
2023-04-14T02:15:16.088Z,30.90
2023-04-14T02:18:23.307Z,32.13
2023-04-14T02:21:27.334Z,18.60
2023-04-14T02:24:30.809Z,30.40
2023-04-14T02:27:39.164Z,12.07
2023-04-14T02:30:45.666Z,18.97
2023-04-14T02:33:54.621Z,25.73
2023-04-14T02:36:58.872Z,26.60
2023-04-14T02:40:05.328Z,13.80
2023-04-14T02:43:14.192Z,20.00
2023-04-14T02:46:20.790Z,27.43
2023-04-14T02:49:26.070Z,29.63
2023-04-14T02:52:31.609Z,25.87
2023-04-14T02:55:35.644Z,28.43
2023-04-14T02:58:39.177Z,15.53
2023-04-14T03:01:44.399Z,17.90
2023-04-14T03:04:48.810Z,37.77
2023-04-14T03:07:53.643Z,38.97
2023-04-14T03:10:57.213Z,15.90
2023-04-14T03:14:00.315Z,32.33
2023-04-14T03:17:04.667Z,60.43
2023-04-14T03:20:10.728Z,29.87
2023-04-14T03:23:14.876Z,62.23
2023-04-14T03:26:22.098Z,47.23
2023-04-14T03:29:27.952Z,24.90
2023-04-14T03:32:35.798Z,23.67
2023-04-14T03:35:41.871Z,18.80
2023-04-14T03:38:46.796Z,11.00
2023-04-14T03:41:51.723Z,14.10
2023-04-14T03:44:57.151Z,14.03
2023-04-14T03:48:03.711Z,10.50
2023-04-14T03:51:10.745Z,14.43
2023-04-14T03:54:16.529Z,12.97
2023-04-14T03:57:23.771Z,21.90
2023-04-14T04:00:28.117Z,25.13
2023-04-14T04:03:33.608Z,12.17
2023-04-14T04:06:40.216Z,10.97
2023-04-14T04:09:44.385Z,7.87
2023-04-14T04:12:49.870Z,5.40
2023-04-14T04:15:53.707Z,9.57
2023-04-14T04:18:57.430Z,17.53
2023-04-14T04:22:02.965Z,8.57
2023-04-14T04:25:08.106Z,8.10
2023-04-14T04:28:14.275Z,11.80
2023-04-14T04:31:17.401Z,11.80
2023-04-14T04:34:20.884Z,19.17
2023-04-14T04:37:28.727Z,6.50
2023-04-14T04:40:36.864Z,5.07
2023-04-14T04:43:39.529Z,4.40
2023-04-14T04:46:53.284Z,5.47
2023-04-14T04:49:55.958Z,9.27
2023-04-14T04:52:59.966Z,6.13
2023-04-14T04:56:03.353Z,11.27
2023-04-14T04:59:06.054Z,7.77
2023-04-14T05:02:09.100Z,11.57
2023-04-14T05:05:12.044Z,15.73
2023-04-14T05:08:16.419Z,16.07
2023-04-14T05:11:19.286Z,53.70
2023-04-14T05:14:21.997Z,29.87
2023-04-14T05:17:24.714Z,29.70
2023-04-14T05:20:27.876Z,30.57
2023-04-14T05:23:33.802Z,16.07
2023-04-14T05:26:57.626Z,24.07
2023-04-14T05:29:59.372Z,29.50
2023-04-14T05:33:03.526Z,25.13
2023-04-14T05:36:06.831Z,15.07
2023-04-14T05:39:10.880Z,25.47
2023-04-14T05:42:13.588Z,17.43
2023-04-14T05:45:16.296Z,34.27
2023-04-14T05:48:19.110Z,17.53
2023-04-14T05:51:21.822Z,13.30
2023-04-14T05:54:25.928Z,13.83
2023-04-14T05:57:28.637Z,9.63
2023-04-14T06:00:31.321Z,23.03
2023-04-14T06:03:34.686Z,18.33
2023-04-14T06:06:38.676Z,11.27
2023-04-14T06:09:43.070Z,9.40
2023-04-14T06:12:45.992Z,11.60
2023-04-14T06:15:49.753Z,12.00
2023-04-14T06:18:52.395Z,10.87
2023-04-14T06:21:55.802Z,16.90
2023-04-14T06:24:59.937Z,19.70
2023-04-14T06:28:03.525Z,16.33
2023-04-14T06:31:06.687Z,17.67
2023-04-14T06:34:09.397Z,16.63
2023-04-14T06:37:12.122Z,18.77
2023-04-14T06:40:16.354Z,15.27
2023-04-14T06:43:19.847Z,13.77
2023-04-14T06:46:22.530Z,23.33
2023-04-14T06:49:25.485Z,14.20
2023-04-14T06:52:28.213Z,16.23
2023-04-14T06:55:32.504Z,14.93
2023-04-14T06:58:35.248Z,13.60
2023-04-14T07:01:38.019Z,12.27
2023-04-14T07:04:40.864Z,17.00
2023-04-14T07:07:43.900Z,13.90
2023-04-14T07:10:48.550Z,14.43
2023-04-14T07:13:51.473Z,15.70
2023-04-14T07:16:54.472Z,15.23
2023-04-14T07:19:58.387Z,11.70
2023-04-14T07:23:01.070Z,12.93
2023-04-14T07:26:05.370Z,12.80
2023-04-14T07:29:08.075Z,11.03
2023-04-14T07:32:12.116Z,16.13
2023-04-14T07:35:15.011Z,13.10
2023-04-14T07:38:17.687Z,13.37
2023-04-14T07:41:21.884Z,14.97
2023-04-14T07:44:24.542Z,18.63
2023-04-14T07:47:27.267Z,14.90
2023-04-14T07:50:30.227Z,12.57
2023-04-14T07:53:33.818Z,12.70
2023-04-14T07:56:37.936Z,12.50
2023-04-14T07:59:42.847Z,13.70
2023-04-14T08:02:46.021Z,11.23
2023-04-14T08:05:48.841Z,10.70
2023-04-14T08:08:51.726Z,11.53
2023-04-14T08:11:56.878Z,13.33
2023-04-14T08:14:59.669Z,11.23
2023-04-14T08:18:02.954Z,10.90
2023-04-14T08:21:05.895Z,16.10
2023-04-14T08:24:08.823Z,16.23
2023-04-14T08:27:12.902Z,11.97
2023-04-14T08:30:15.872Z,14.77
2023-04-14T08:33:18.592Z,13.40
2023-04-14T08:36:21.672Z,13.73
2023-04-14T08:39:24.340Z,12.07
2023-04-14T08:42:28.736Z,14.70
2023-04-14T08:45:32.446Z,11.27
2023-04-14T08:48:39.142Z,12.10
2023-04-14T08:51:44.698Z,10.97
2023-04-14T08:54:51.097Z,10.50
2023-04-14T08:57:56.234Z,12.27
2023-04-14T09:01:00.150Z,11.57
2023-04-14T09:04:05.098Z,11.03
2023-04-14T09:07:09.074Z,9.07
2023-04-14T09:10:12.542Z,16.07
2023-04-14T09:13:17.858Z,12.77
2023-04-14T09:16:20.820Z,8.23
2023-04-14T09:19:25.368Z,9.07
2023-04-14T09:22:28.671Z,11.53
2023-04-14T09:25:31.786Z,13.90
2023-04-14T09:28:35.951Z,12.13
2023-04-14T09:31:38.929Z,12.43
2023-04-14T09:34:50.104Z,9.97
2023-04-14T09:37:52.772Z,9.60
2023-04-14T09:40:57.021Z,13.20
2023-04-14T09:44:08.815Z,12.77
2023-04-14T09:47:15.388Z,12.40
2023-04-14T09:50:18.062Z,11.97
2023-04-14T09:53:26.650Z,10.07
2023-04-14T09:56:29.401Z,17.20
2023-04-14T09:59:35.560Z,8.70
2023-04-14T10:02:49.324Z,8.00
2023-04-14T10:05:52.108Z,13.40
2023-04-14T10:08:57.106Z,9.13
2023-04-14T10:12:10.890Z,7.43
2023-04-14T10:15:17.290Z,11.60
2023-04-14T10:18:20.081Z,6.97
2023-04-14T10:21:25.450Z,8.53
2023-04-14T10:24:28.239Z,8.47
2023-04-14T10:27:33.893Z,7.63
2023-04-14T10:30:39.049Z,8.50
2023-04-14T10:33:42.247Z,8.77
2023-04-14T10:36:45.414Z,11.10
2023-04-14T10:39:56.129Z,9.23
2023-04-14T10:42:58.826Z,18.17
2023-04-14T10:46:03.642Z,6.50
2023-04-14T10:49:06.497Z,8.60
2023-04-14T10:52:33.193Z,11.77
2023-04-14T10:55:51.646Z,5.00
2023-04-14T10:58:56.025Z,12.33
2023-04-14T11:02:00.434Z,10.30
2023-04-14T11:05:06.505Z,9.27
2023-04-14T11:08:14.373Z,11.03
2023-04-14T11:11:17.899Z,8.20
2023-04-14T11:14:27.547Z,8.57
2023-04-14T11:17:33.228Z,6.37
2023-04-14T11:20:41.145Z,7.90
2023-04-14T11:23:44.448Z,9.17
2023-04-14T11:26:47.456Z,9.20
2023-04-14T11:29:51.307Z,8.53
2023-04-14T11:32:58.587Z,5.63
2023-04-14T11:36:03.236Z,3.63
2023-04-14T11:39:06.839Z,7.47
2023-04-14T11:42:09.582Z,6.80
2023-04-14T11:45:15.552Z,5.07
2023-04-14T11:48:21.752Z,8.27
2023-04-14T11:51:30.667Z,8.77
2023-04-14T11:54:36.436Z,6.67
2023-04-14T11:57:39.282Z,8.60
2023-04-14T12:00:42.952Z,8.67
2023-04-14T12:03:47.223Z,6.67
2023-04-14T12:06:50.150Z,9.83
2023-04-14T12:09:52.827Z,6.97
2023-04-14T12:13:00.946Z,6.87
2023-04-14T12:16:05.016Z,6.27
2023-04-14T12:19:09.216Z,6.10
2023-04-14T12:22:12.177Z,6.73
2023-04-14T12:25:14.905Z,4.53
2023-04-14T12:28:19.467Z,5.00
2023-04-14T12:31:28.618Z,6.50
2023-04-14T12:34:33.042Z,6.77
2023-04-14T12:37:35.798Z,7.70
2023-04-14T12:40:40.730Z,6.93
2023-04-14T12:43:43.439Z,8.77
2023-04-14T12:46:48.712Z,8.00
2023-04-14T12:49:53.847Z,4.17
2023-04-14T12:52:57.253Z,8.07
2023-04-14T12:56:07.903Z,4.67
2023-04-14T12:59:10.631Z,8.80
2023-04-14T13:02:14.136Z,4.97
2023-04-14T13:05:18.537Z,4.33
2023-04-14T13:08:21.182Z,5.33
2023-04-14T13:11:25.111Z,7.67
2023-04-14T13:14:27.799Z,3.37
2023-04-14T13:17:30.747Z,4.80
2023-04-14T13:20:35.237Z,5.27
2023-04-14T13:23:38.240Z,5.70
2023-04-14T13:26:40.979Z,4.80
2023-04-14T13:29:43.833Z,5.40
2023-04-14T13:32:46.750Z,4.57
2023-04-14T13:35:51.518Z,4.37
2023-04-14T13:38:56.081Z,5.77
2023-04-14T13:41:59.514Z,5.60
2023-04-14T13:45:02.275Z,6.70
2023-04-14T13:48:05.684Z,4.50
2023-04-14T13:51:09.724Z,3.30
2023-04-14T13:54:12.720Z,5.53
2023-04-14T13:57:15.501Z,5.37
2023-04-14T14:00:18.619Z,4.27
2023-04-14T14:03:21.327Z,5.40
2023-04-14T14:06:26.476Z,4.13
2023-04-14T14:09:29.396Z,4.77
2023-04-14T14:12:32.516Z,4.37
2023-04-14T14:15:35.554Z,4.57
2023-04-14T14:18:38.436Z,4.63
2023-04-14T14:21:44.031Z,3.07
2023-04-14T14:24:47.052Z,4.63
2023-04-14T14:27:51.961Z,2.37
2023-04-14T14:30:54.766Z,8.37
2023-04-14T14:33:57.467Z,2.93
2023-04-14T14:37:02.276Z,4.63
2023-04-14T14:40:06.738Z,6.80
2023-04-14T14:43:09.620Z,6.07
2023-04-14T14:46:12.378Z,3.53
2023-04-14T14:49:15.473Z,4.87
2023-04-14T14:52:19.534Z,2.93
2023-04-14T14:55:22.176Z,4.73
2023-04-14T14:58:25.404Z,7.00
2023-04-14T15:01:28.241Z,7.30
2023-04-14T15:04:31.228Z,3.63
2023-04-14T15:07:35.342Z,4.70
2023-04-14T15:10:38.000Z,3.97
2023-04-14T15:13:40.732Z,7.77
2023-04-14T15:16:43.452Z,4.87
2023-04-14T15:19:46.774Z,5.40
2023-04-14T15:22:50.856Z,2.13
2023-04-14T15:25:53.656Z,10.03
2023-04-14T15:28:56.442Z,4.73
2023-04-14T15:35:01.778Z,4.87
2023-04-14T15:38:06.147Z,3.80
2023-04-14T15:41:08.829Z,6.63
2023-04-14T15:44:11.610Z,5.80
2023-04-14T15:47:14.296Z,3.57
2023-04-14T15:50:18.746Z,9.50
2023-04-14T15:53:23.575Z,5.73
2023-04-14T15:56:26.522Z,5.83
2023-04-14T15:59:30.296Z,5.37
2023-04-14T16:02:35.239Z,6.33
2023-04-14T16:05:37.990Z,4.10
2023-04-14T16:08:42.208Z,4.53
2023-04-14T16:11:44.856Z,4.83
2023-04-14T16:14:47.522Z,5.97
2023-04-14T16:17:51.095Z,8.67
2023-04-14T16:20:53.796Z,4.00
2023-04-14T16:23:57.903Z,3.07
2023-04-14T16:27:01.081Z,4.93
2023-04-14T16:30:03.959Z,4.73
2023-04-14T16:33:06.902Z,5.70
2023-04-14T16:36:09.624Z,3.53
2023-04-14T16:39:13.687Z,2.53
2023-04-14T16:42:18.936Z,2.00
2023-04-14T16:45:21.771Z,3.53
2023-04-14T16:48:24.457Z,6.57
2023-04-14T16:51:27.934Z,5.13
2023-04-14T16:54:32.657Z,5.30
2023-04-14T16:57:35.473Z,4.03
2023-04-14T17:00:38.219Z,15.83
2023-04-14T17:03:41.591Z,5.83
2023-04-14T17:06:44.498Z,3.17
2023-04-14T17:09:48.971Z,4.83
2023-04-14T17:12:53.793Z,3.97
2023-04-14T17:16:06.166Z,2.93
2023-04-14T17:19:14.013Z,3.90
2023-04-14T17:22:16.711Z,3.70
2023-04-14T17:25:22.932Z,2.00
2023-04-14T17:28:26.768Z,4.00
2023-04-14T17:31:29.664Z,5.23
2023-04-14T17:34:32.456Z,3.77
2023-04-14T17:37:36.142Z,3.80
2023-04-14T17:40:40.385Z,4.53
2023-04-14T17:43:43.118Z,3.63
2023-04-14T17:46:46.508Z,4.10
2023-04-14T17:49:50.001Z,4.90
2023-04-14T17:52:53.942Z,4.37
2023-04-14T17:55:58.853Z,6.80
2023-04-14T17:59:02.952Z,5.70
2023-04-14T18:02:05.665Z,7.53
2023-04-14T18:05:11.117Z,7.50
2023-04-14T18:08:14.273Z,11.60
2023-04-14T18:11:18.489Z,8.00
2023-04-14T18:14:21.655Z,7.37
2023-04-14T18:17:24.935Z,4.43
2023-04-14T18:20:27.745Z,2.67
2023-04-14T18:23:31.977Z,2.83
2023-04-14T18:26:36.186Z,2.33
2023-04-14T18:29:39.105Z,2.07
2023-04-14T18:32:42.024Z,2.90
2023-04-14T18:35:50.587Z,1.90
2023-04-14T18:38:53.232Z,2.87
2023-04-14T18:41:57.239Z,3.63
2023-04-14T18:44:59.978Z,5.33
2023-04-14T18:48:03.287Z,2.83
2023-04-14T18:51:08.158Z,5.47
2023-04-14T18:54:13.805Z,5.70
2023-04-14T18:57:18.028Z,9.40
2023-04-14T19:00:20.995Z,3.53
2023-04-14T19:03:24.026Z,3.77
2023-04-14T19:06:27.502Z,4.53
2023-04-14T19:09:30.153Z,5.20
2023-04-14T19:12:34.485Z,5.47
2023-04-14T19:15:37.612Z,7.33
2023-04-14T19:18:41.050Z,5.47
2023-04-14T19:21:43.726Z,4.70
2023-04-14T19:24:46.407Z,4.97
2023-04-14T19:27:51.045Z,3.43
2023-04-14T19:30:54.316Z,5.60
2023-04-14T19:33:58.669Z,2.77
2023-04-14T19:37:03.254Z,3.90
2023-04-14T19:40:08.239Z,2.90
2023-04-14T19:43:13.832Z,6.17
2023-04-14T19:46:18.025Z,5.83
2023-04-14T19:49:20.872Z,3.17
2023-04-14T19:52:23.645Z,4.40
2023-04-14T19:55:26.349Z,5.77
2023-04-14T19:58:31.384Z,3.90
2023-04-14T20:01:34.404Z,8.30
2023-04-14T20:04:37.736Z,5.97
2023-04-14T20:07:40.726Z,6.53
2023-04-14T20:10:43.576Z,4.00
2023-04-14T20:13:47.864Z,3.97
2023-04-14T20:16:51.497Z,4.43
2023-04-14T20:19:54.760Z,6.07
2023-04-14T20:22:59.080Z,6.73
2023-04-14T20:26:02.295Z,3.63
2023-04-14T20:29:06.513Z,4.80
2023-04-14T20:32:09.435Z,3.00
2023-04-14T20:35:13.059Z,4.20
2023-04-14T20:38:16.202Z,3.93
2023-04-14T20:41:19.270Z,5.23
2023-04-14T20:44:23.281Z,4.70
2023-04-14T20:47:26.707Z,4.47
2023-04-14T20:50:29.696Z,5.13
2023-04-14T20:53:32.355Z,4.27
2023-04-14T20:56:35.055Z,5.13
2023-04-14T20:59:39.366Z,5.23
2023-04-14T21:02:43.504Z,9.33
2023-04-14T21:05:47.369Z,3.83
2023-04-14T21:08:50.081Z,5.33
2023-04-14T21:12:15.258Z,5.77
2023-04-14T21:15:48.555Z,3.87
2023-04-14T21:18:40.743Z,5.70
2023-04-14T21:21:43.396Z,8.73
2023-04-14T21:24:48.530Z,8.13
2023-04-14T21:27:51.383Z,4.17
2023-04-14T21:31:00.432Z,6.83
2023-04-14T21:34:04.654Z,6.63
2023-04-14T21:37:07.456Z,6.77
2023-04-14T21:40:11.191Z,4.80
2023-04-14T21:43:13.821Z,3.50
2023-04-14T21:46:17.944Z,4.70
2023-04-14T21:49:20.877Z,7.83
2023-04-14T21:52:23.521Z,9.10
2023-04-14T21:55:26.436Z,4.40
2023-04-14T21:58:29.080Z,5.17
2023-04-14T22:01:33.794Z,5.17
2023-04-14T22:04:37.377Z,5.93
2023-04-14T22:07:40.397Z,5.17
2023-04-14T22:10:43.437Z,4.27
2023-04-14T22:13:46.579Z,5.27
2023-04-14T22:16:50.649Z,4.93
2023-04-14T22:19:53.758Z,4.23
2023-04-14T22:22:57.131Z,3.57
2023-04-14T22:26:01.023Z,4.60
2023-04-14T22:29:04.381Z,4.60
2023-04-14T22:32:08.764Z,5.80
2023-04-14T22:35:11.516Z,4.37
2023-04-14T22:38:16.744Z,4.50
2023-04-14T22:41:19.782Z,5.97
2023-04-14T22:44:22.465Z,5.67
2023-04-14T22:47:26.893Z,4.30
2023-04-14T22:50:30.810Z,4.93
2023-04-14T22:53:33.509Z,5.00
2023-04-14T22:56:37.162Z,6.70
2023-04-14T22:59:39.803Z,7.80
2023-04-14T23:02:46.618Z,5.73
2023-04-14T23:05:50.512Z,9.80
2023-04-14T23:08:53.208Z,5.80
2023-04-14T23:11:58.105Z,6.97
2023-04-14T23:15:02.333Z,5.23
2023-04-14T23:18:06.524Z,3.93
2023-04-14T23:21:10.045Z,5.23
2023-04-14T23:24:13.938Z,5.07
2023-04-14T23:27:19.528Z,4.27
2023-04-14T23:30:22.226Z,3.57
2023-04-14T23:33:27.411Z,4.20
2023-04-14T23:36:30.310Z,4.63
2023-04-14T23:39:33.335Z,5.90
2023-04-14T23:42:36.003Z,10.20
2023-04-14T23:45:38.821Z,6.20
2023-04-14T23:48:42.973Z,7.63
2023-04-14T23:51:46.327Z,5.07
2023-04-14T23:54:48.994Z,7.37
